createdAt,value
2023-01-19T00:00:55.660Z,-3.00
2023-01-19T00:03:23.066Z,-3.10
2023-01-19T00:05:50.297Z,-3.20
2023-01-19T00:08:17.865Z,-3.20
2023-01-19T00:10:53.917Z,-3.30
2023-01-19T00:13:21.127Z,-3.40
2023-01-19T00:15:48.325Z,-3.30
2023-01-19T00:18:15.534Z,-3.40
2023-01-19T00:20:45.287Z,-3.40
2023-01-19T00:23:12.609Z,-3.40
2023-01-19T00:25:42.780Z,-3.50
2023-01-19T00:28:15.762Z,-3.50
2023-01-19T00:30:43.788Z,-3.50
2023-01-19T00:33:14.714Z,-3.60
2023-01-19T00:35:45.594Z,-3.60
2023-01-19T00:38:13.133Z,-3.60
2023-01-19T00:40:40.297Z,-3.60
2023-01-19T00:43:07.614Z,-3.70
2023-01-19T00:45:35.413Z,-3.70
2023-01-19T00:48:02.654Z,-3.70
2023-01-19T00:50:31.753Z,-3.70
2023-01-19T00:53:01.684Z,-3.70
2023-01-19T00:55:30.145Z,-3.70
2023-01-19T00:57:58.003Z,-3.80
2023-01-19T01:00:25.461Z,-3.80
2023-01-19T01:02:54.062Z,-3.80
2023-01-19T01:05:23.200Z,-3.80
2023-01-19T01:07:50.970Z,-3.80
2023-01-19T01:10:21.350Z,-3.80
2023-01-19T01:12:54.951Z,-3.80
2023-01-19T01:15:27.328Z,-3.80
2023-01-19T01:17:54.614Z,-3.90
2023-01-19T01:20:25.376Z,-3.90
2023-01-19T01:22:53.784Z,-3.90
2023-01-19T01:25:22.937Z,-4.00
2023-01-19T01:27:50.373Z,-4.00
2023-01-19T01:30:17.497Z,-4.00
2023-01-19T01:32:44.665Z,-4.00
2023-01-19T01:35:12.996Z,-3.90
2023-01-19T01:37:40.270Z,-4.00
2023-01-19T01:40:07.983Z,-4.00
2023-01-19T01:42:35.439Z,-4.00
2023-01-19T01:45:07.727Z,-4.00
2023-01-19T01:47:38.277Z,-4.00
2023-01-19T01:50:11.168Z,-4.00
2023-01-19T01:52:44.894Z,-4.10
2023-01-19T01:55:33.776Z,-4.10
2023-01-19T01:58:04.094Z,-4.10
2023-01-19T02:00:54.661Z,-4.10
2023-01-19T02:03:24.397Z,-4.00
2023-01-19T02:05:53.732Z,-4.00
2023-01-19T02:08:56.878Z,-4.00
2023-01-19T02:11:42.309Z,-3.90
2023-01-19T02:14:09.267Z,-3.90
2023-01-19T02:16:37.510Z,-3.90
2023-01-19T02:19:07.471Z,-3.90
2023-01-19T02:21:46.317Z,-4.00
2023-01-19T02:24:13.724Z,-4.10
2023-01-19T02:26:45.675Z,-4.10
2023-01-19T02:29:16.421Z,-4.20
2023-01-19T02:31:45.403Z,-4.20
2023-01-19T02:34:15.625Z,-4.20
2023-01-19T02:36:56.587Z,-4.30
2023-01-19T02:39:58.794Z,-4.30
2023-01-19T02:42:39.489Z,-4.30
2023-01-19T02:45:09.545Z,-4.30
2023-01-19T02:47:44.467Z,-4.30
2023-01-19T02:50:33.339Z,-4.40
2023-01-19T02:53:11.035Z,-4.40
2023-01-19T02:55:40.271Z,-4.40
2023-01-19T02:58:20.560Z,-4.50
2023-01-19T03:01:14.147Z,-4.40
2023-01-19T03:04:04.471Z,-4.50
2023-01-19T03:07:30.465Z,-4.50
2023-01-19T03:10:33.224Z,-4.50
2023-01-19T03:13:24.960Z,-4.60
2023-01-19T03:16:13.276Z,-4.70
2023-01-19T03:18:43.239Z,-4.60
2023-01-19T03:21:13.397Z,-4.70
2023-01-19T03:23:44.232Z,-4.80
2023-01-19T03:26:15.055Z,-4.80
2023-01-19T03:28:44.260Z,-4.70
2023-01-19T03:31:21.352Z,-4.70
2023-01-19T03:33:52.811Z,-4.80
2023-01-19T03:36:51.315Z,-4.90
2023-01-19T03:39:23.040Z,-4.90
2023-01-19T03:41:54.841Z,-4.90
2023-01-19T03:44:22.537Z,-4.90
2023-01-19T03:46:50.493Z,-4.80
2023-01-19T03:49:17.613Z,-4.60
2023-01-19T03:51:44.803Z,-4.50
2023-01-19T03:54:12.211Z,-4.30
2023-01-19T03:56:39.387Z,-4.40
2023-01-19T03:59:07.154Z,-4.40
2023-01-19T04:01:34.218Z,-4.40
2023-01-19T04:04:01.278Z,-4.40
2023-01-19T04:06:28.410Z,-4.40
2023-01-19T04:08:55.811Z,-4.30
2023-01-19T04:11:22.877Z,-4.30
2023-01-19T04:13:50.291Z,-4.20
2023-01-19T04:16:20.664Z,-4.10
2023-01-19T04:18:48.463Z,-4.10
2023-01-19T04:21:16.090Z,-4.00
2023-01-19T04:23:44.469Z,-4.00
2023-01-19T04:26:11.495Z,-4.10
2023-01-19T04:28:39.002Z,-4.00
2023-01-19T04:31:08.258Z,-4.10
2023-01-19T04:33:35.298Z,-4.20
2023-01-19T04:36:02.717Z,-4.10
2023-01-19T04:38:29.910Z,-4.10
2023-01-19T04:40:57.126Z,-4.10
2023-01-19T04:43:24.196Z,-4.10
2023-01-19T04:45:51.306Z,-4.10
2023-01-19T04:48:19.077Z,-4.10
2023-01-19T04:50:46.582Z,-4.00
2023-01-19T04:53:14.636Z,-3.90
2023-01-19T04:55:41.674Z,-3.80
2023-01-19T04:58:08.852Z,-3.70
2023-01-19T05:00:36.478Z,-3.60
2023-01-19T05:03:04.269Z,-3.50
2023-01-19T05:05:33.164Z,-3.50
2023-01-19T05:08:00.752Z,-3.60
2023-01-19T05:10:28.073Z,-3.70
2023-01-19T05:12:55.777Z,-3.70
2023-01-19T05:15:22.772Z,-3.70
2023-01-19T05:17:49.833Z,-3.90
2023-01-19T05:20:17.559Z,-4.00
2023-01-19T05:22:50.766Z,-3.90
2023-01-19T05:25:18.540Z,-3.80
2023-01-19T05:27:45.898Z,-3.70
2023-01-19T05:30:13.608Z,-3.70
2023-01-19T05:32:40.657Z,-3.60
2023-01-19T05:35:08.212Z,-3.60
2023-01-19T05:37:35.201Z,-3.60
2023-01-19T05:40:02.207Z,-3.50
2023-01-19T05:42:31.289Z,-3.50
2023-01-19T05:44:59.632Z,-3.40
2023-01-19T05:47:29.434Z,-3.40
2023-01-19T05:49:56.466Z,-3.30
2023-01-19T05:52:25.179Z,-3.40
2023-01-19T05:54:52.282Z,-3.30
2023-01-19T05:57:19.346Z,-3.30
2023-01-19T05:59:46.497Z,-3.30
2023-01-19T06:02:13.895Z,-3.30
2023-01-19T06:04:40.867Z,-3.30
2023-01-19T06:07:07.897Z,-3.40
2023-01-19T06:09:34.802Z,-3.40
2023-01-19T06:12:01.793Z,-3.40
2023-01-19T06:14:28.765Z,-3.50
2023-01-19T06:16:55.839Z,-3.50
2023-01-19T06:19:22.736Z,-3.60
2023-01-19T06:21:52.445Z,-3.70
2023-01-19T06:24:19.904Z,-3.70
2023-01-19T06:26:47.008Z,-3.80
2023-01-19T06:29:14.682Z,-3.80
2023-01-19T06:31:42.504Z,-3.90
2023-01-19T06:34:09.958Z,-4.00
2023-01-19T06:36:37.194Z,-4.10
2023-01-19T06:39:06.117Z,-4.10
2023-01-19T06:41:34.131Z,-4.10
2023-01-19T06:44:01.426Z,-4.20
2023-01-19T06:46:28.908Z,-4.30
2023-01-19T06:48:55.993Z,-4.30
2023-01-19T06:51:23.438Z,-4.30
2023-01-19T06:53:50.685Z,-4.10
2023-01-19T06:56:18.167Z,-3.90
2023-01-19T06:58:48.061Z,-3.80
2023-01-19T07:01:15.415Z,-3.70
2023-01-19T07:03:42.744Z,-3.60
2023-01-19T07:06:10.300Z,-3.50
2023-01-19T07:08:38.624Z,-3.30
2023-01-19T07:11:25.223Z,-3.20
2023-01-19T07:13:56.006Z,-3.20
2023-01-19T07:16:24.043Z,-3.10
2023-01-19T07:18:51.530Z,-3.00
2023-01-19T07:21:18.887Z,-3.00
2023-01-19T07:23:50.097Z,-2.90
2023-01-19T07:26:19.987Z,-2.70
2023-01-19T07:28:48.360Z,-2.70
2023-01-19T07:31:16.208Z,-2.50
2023-01-19T07:33:43.337Z,-2.50
2023-01-19T07:36:10.846Z,-2.50
2023-01-19T07:38:37.967Z,-2.40
2023-01-19T07:41:07.056Z,-2.30
2023-01-19T07:43:34.631Z,-2.30
2023-01-19T07:46:03.474Z,-2.30
2023-01-19T07:48:30.743Z,-2.20
2023-01-19T07:51:02.147Z,-2.20
2023-01-19T07:53:29.159Z,-2.20
2023-01-19T07:55:57.244Z,-2.10
2023-01-19T07:58:25.136Z,-2.20
2023-01-19T08:00:53.044Z,-2.10
2023-01-19T08:03:20.650Z,-2.00
2023-01-19T08:05:51.750Z,-2.00
2023-01-19T08:08:19.196Z,-1.90
2023-01-19T08:10:49.387Z,-1.90
2023-01-19T08:13:16.581Z,-1.80
2023-01-19T08:15:43.532Z,-1.80
2023-01-19T08:18:11.729Z,-1.80
2023-01-19T08:20:39.051Z,-1.80
2023-01-19T08:23:06.040Z,-1.70
2023-01-19T08:25:33.198Z,-1.70
2023-01-19T08:28:00.967Z,-1.60
2023-01-19T08:30:28.318Z,-1.60
2023-01-19T08:32:58.300Z,-1.50
2023-01-19T08:35:25.620Z,-1.40
2023-01-19T08:37:52.591Z,-1.30
2023-01-19T08:40:20.496Z,-1.20
2023-01-19T08:42:47.430Z,-1.00
2023-01-19T08:45:14.541Z,-0.90
2023-01-19T08:47:41.588Z,-0.80
2023-01-19T08:50:10.589Z,-0.40
2023-01-19T08:52:37.547Z,0.40
2023-01-19T08:55:04.956Z,1.10
2023-01-19T08:57:31.861Z,1.60
2023-01-19T08:59:58.880Z,2.00
2023-01-19T09:02:26.033Z,2.40
2023-01-19T09:04:53.032Z,2.80
2023-01-19T09:07:20.099Z,3.00
2023-01-19T09:09:47.031Z,2.90
2023-01-19T09:12:14.889Z,2.90
2023-01-19T09:14:41.819Z,2.80
2023-01-19T09:17:08.839Z,2.70
2023-01-19T09:19:35.766Z,2.70
2023-01-19T09:22:02.702Z,2.70
2023-01-19T09:24:29.624Z,2.70
2023-01-19T09:26:56.567Z,2.70
2023-01-19T09:29:23.463Z,2.70
2023-01-19T09:31:50.390Z,2.80
2023-01-19T09:34:17.794Z,3.10
2023-01-19T09:36:46.339Z,3.60
2023-01-19T09:39:13.395Z,4.00
2023-01-19T09:41:45.514Z,4.00
2023-01-19T09:44:24.823Z,3.50
2023-01-19T09:46:52.279Z,2.60
2023-01-19T09:49:28.215Z,2.00
2023-01-19T09:51:55.496Z,1.50
2023-01-19T09:54:32.973Z,1.00
2023-01-19T09:57:00.111Z,0.90
2023-01-19T09:59:30.788Z,0.80
2023-01-19T10:02:30.752Z,0.70
2023-01-19T10:05:03.544Z,0.50
2023-01-19T10:07:53.471Z,0.40
2023-01-19T10:10:31.983Z,0.50
2023-01-19T10:13:18.027Z,0.50
2023-01-19T10:15:47.901Z,0.50
2023-01-19T10:18:43.357Z,0.60
2023-01-19T10:21:19.114Z,0.60
2023-01-19T10:24:20.348Z,0.60
2023-01-19T10:26:52.847Z,0.70
2023-01-19T10:29:25.617Z,0.70
2023-01-19T10:32:00.590Z,0.70
2023-01-19T10:34:27.523Z,0.80
2023-01-19T10:37:02.794Z,0.80
2023-01-19T10:39:29.810Z,0.70
2023-01-19T10:42:03.937Z,0.60
2023-01-19T10:44:37.196Z,0.60
2023-01-19T10:47:06.451Z,0.50
2023-01-19T10:49:44.671Z,0.50
2023-01-19T10:52:31.892Z,0.50
2023-01-19T10:55:02.338Z,0.60
2023-01-19T10:57:34.564Z,0.70
2023-01-19T11:00:01.661Z,0.80
2023-01-19T11:02:31.134Z,0.70
2023-01-19T11:05:21.886Z,0.70
2023-01-19T11:07:48.858Z,0.80
2023-01-19T11:10:15.812Z,1.00
2023-01-19T11:13:04.529Z,1.10
2023-01-19T11:15:44.266Z,1.20
2023-01-19T11:18:30.841Z,1.50
2023-01-19T11:21:06.926Z,1.60
2023-01-19T11:23:45.298Z,1.80
2023-01-19T11:26:40.868Z,1.80
2023-01-19T11:29:22.726Z,1.70
2023-01-19T11:31:50.712Z,1.70
2023-01-19T11:34:32.991Z,1.70
2023-01-19T11:37:03.459Z,1.50
2023-01-19T11:39:45.742Z,1.50
2023-01-19T11:42:13.620Z,1.50
2023-01-19T11:44:55.815Z,1.40
2023-01-19T11:47:39.700Z,1.30
2023-01-19T11:50:12.704Z,1.20
2023-01-19T11:52:44.795Z,1.20
2023-01-19T11:55:49.531Z,1.20
2023-01-19T11:58:18.472Z,1.20
2023-01-19T12:00:57.573Z,1.30
2023-01-19T12:03:31.017Z,1.30
2023-01-19T12:06:16.617Z,1.40
2023-01-19T12:08:53.067Z,1.50
2023-01-19T12:11:26.734Z,1.70
2023-01-19T12:13:54.769Z,1.70
2023-01-19T12:16:24.626Z,1.80
2023-01-19T12:19:18.368Z,1.80
2023-01-19T12:21:49.029Z,1.80
2023-01-19T12:24:27.535Z,1.70
2023-01-19T12:26:59.716Z,1.50
2023-01-19T12:29:30.742Z,1.40
2023-01-19T12:32:19.544Z,1.30
2023-01-19T12:34:48.727Z,1.20
2023-01-19T12:37:30.675Z,1.20
2023-01-19T12:40:22.413Z,1.10
2023-01-19T12:43:05.075Z,1.10
2023-01-19T12:45:36.333Z,1.10
2023-01-19T12:48:04.501Z,1.10
2023-01-19T12:50:45.831Z,1.20
2023-01-19T12:53:21.483Z,1.20
2023-01-19T12:56:00.187Z,1.20
2023-01-19T12:58:27.545Z,1.30
2023-01-19T13:01:16.742Z,1.30
2023-01-19T13:04:27.040Z,1.30
2023-01-19T13:06:54.258Z,1.30
2023-01-19T13:09:40.098Z,1.30
2023-01-19T13:12:26.224Z,1.20
2023-01-19T13:15:48.455Z,1.20
2023-01-19T13:18:22.314Z,1.30
2023-01-19T13:21:01.010Z,1.30
2023-01-19T13:23:51.961Z,1.30
2023-01-19T13:26:25.561Z,1.20
2023-01-19T13:29:17.002Z,1.20
2023-01-19T13:31:45.956Z,1.10
2023-01-19T13:34:19.124Z,1.10
2023-01-19T13:36:50.960Z,1.20
2023-01-19T13:39:26.929Z,1.20
2023-01-19T13:41:57.934Z,1.20
2023-01-19T13:44:39.516Z,1.30
2023-01-19T13:47:12.929Z,1.30
2023-01-19T13:49:46.510Z,1.30
2023-01-19T13:52:27.263Z,1.30
2023-01-19T13:55:02.454Z,1.20
2023-01-19T13:57:31.541Z,1.20
2023-01-19T14:00:15.661Z,1.20
2023-01-19T14:02:54.817Z,1.10
2023-01-19T14:05:23.540Z,1.20
2023-01-19T14:08:11.397Z,1.10
2023-01-19T14:10:46.021Z,1.00
2023-01-19T14:13:20.262Z,1.00
2023-01-19T14:15:50.077Z,0.90
2023-01-19T14:18:17.001Z,0.80
2023-01-19T14:20:58.859Z,0.80
2023-01-19T14:23:48.768Z,0.80
2023-01-19T14:26:37.338Z,0.70
2023-01-19T14:29:10.416Z,0.70
2023-01-19T14:31:52.115Z,0.70
2023-01-19T14:34:39.007Z,0.70
2023-01-19T14:37:30.495Z,0.70
2023-01-19T14:40:11.031Z,0.70
2023-01-19T14:43:00.250Z,0.70
2023-01-19T14:45:29.387Z,0.80
2023-01-19T14:48:22.826Z,0.80
2023-01-19T14:51:03.309Z,0.80
2023-01-19T14:53:36.891Z,0.80
2023-01-19T14:56:05.894Z,0.80
2023-01-19T14:58:34.382Z,0.80
2023-01-19T15:01:02.377Z,0.80
2023-01-19T15:03:44.806Z,0.80
2023-01-19T15:06:15.696Z,0.70
2023-01-19T15:08:43.604Z,0.70
2023-01-19T15:11:21.362Z,0.60
2023-01-19T15:13:49.068Z,0.50
2023-01-19T15:16:16.352Z,0.50
2023-01-19T15:18:43.417Z,0.40
2023-01-19T15:21:23.639Z,0.40
2023-01-19T15:23:50.658Z,0.30
2023-01-19T15:26:20.971Z,0.30
2023-01-19T15:28:51.354Z,0.20
2023-01-19T15:31:20.610Z,0.10
2023-01-19T15:33:48.233Z,0.10
2023-01-19T15:36:20.101Z,0.00
2023-01-19T15:38:50.229Z,-0.10
2023-01-19T15:41:30.042Z,-0.10
2023-01-19T15:43:57.086Z,-0.30
2023-01-19T15:46:25.494Z,-0.40
2023-01-19T15:48:53.618Z,-0.40
2023-01-19T15:51:23.501Z,-0.60
2023-01-19T15:53:51.137Z,-0.70
2023-01-19T15:56:23.510Z,-0.70
2023-01-19T15:58:51.403Z,-0.70
2023-01-19T16:01:21.446Z,-0.80
2023-01-19T16:03:48.898Z,-0.80
2023-01-19T16:06:17.957Z,-0.80
2023-01-19T16:08:45.315Z,-0.90
2023-01-19T16:11:14.626Z,-1.00
2023-01-19T16:13:45.741Z,-1.10
2023-01-19T16:16:18.424Z,-1.20
2023-01-19T16:18:47.907Z,-1.30
2023-01-19T16:21:15.483Z,-1.30
2023-01-19T16:23:43.055Z,-1.40
2023-01-19T16:26:34.598Z,-1.50
2023-01-19T16:29:11.394Z,-1.60
2023-01-19T16:31:40.632Z,-1.60
2023-01-19T16:34:08.983Z,-1.70
2023-01-19T16:36:38.251Z,-1.60
2023-01-19T16:39:11.509Z,-1.70
2023-01-19T16:41:39.030Z,-1.80
2023-01-19T16:44:07.086Z,-1.90
2023-01-19T16:46:39.711Z,-2.00
2023-01-19T16:49:19.516Z,-1.90
2023-01-19T16:52:05.202Z,-1.90
2023-01-19T16:54:33.197Z,-1.90
2023-01-19T16:57:01.099Z,-1.70
2023-01-19T16:59:29.525Z,-1.60
2023-01-19T17:01:57.982Z,-1.50
2023-01-19T17:04:25.375Z,-1.40
2023-01-19T17:06:52.581Z,-1.40
2023-01-19T17:09:19.989Z,-1.40
2023-01-19T17:11:47.572Z,-1.40
2023-01-19T17:14:17.406Z,-1.40
2023-01-19T17:16:45.041Z,-1.40
2023-01-19T17:19:17.515Z,-1.50
2023-01-19T17:21:46.550Z,-1.50
2023-01-19T17:24:13.756Z,-1.50
2023-01-19T17:26:42.529Z,-1.50
2023-01-19T17:29:10.788Z,-1.60
2023-01-19T17:31:38.177Z,-1.60
2023-01-19T17:34:05.704Z,-1.60
2023-01-19T17:36:34.219Z,-1.70
2023-01-19T17:39:05.518Z,-1.80
2023-01-19T17:41:35.216Z,-1.90
2023-01-19T17:44:04.445Z,-1.90
2023-01-19T17:46:31.929Z,-2.00
2023-01-19T17:49:01.933Z,-2.00
2023-01-19T17:51:29.826Z,-2.00
2023-01-19T17:53:57.552Z,-2.00
2023-01-19T17:56:30.061Z,-2.00
2023-01-19T17:58:58.290Z,-2.00
2023-01-19T18:01:28.205Z,-2.00
2023-01-19T18:03:55.814Z,-2.00
2023-01-19T18:06:23.230Z,-2.00
2023-01-19T18:08:51.158Z,-2.00
2023-01-19T18:11:19.685Z,-2.00
2023-01-19T18:13:49.765Z,-1.90
2023-01-19T18:16:26.659Z,-1.90
2023-01-19T18:18:55.231Z,-1.90
2023-01-19T18:21:23.490Z,-1.80
2023-01-19T18:23:51.402Z,-1.70
2023-01-19T18:26:20.957Z,-1.60
2023-01-19T18:28:48.997Z,-1.60
2023-01-19T18:31:19.150Z,-1.70
2023-01-19T18:33:48.285Z,-1.70
2023-01-19T18:36:17.021Z,-1.60
2023-01-19T18:38:44.849Z,-1.60
2023-01-19T18:41:13.065Z,-1.50
2023-01-19T18:43:40.378Z,-1.60
2023-01-19T18:46:08.192Z,-1.60
2023-01-19T18:48:35.501Z,-1.50
2023-01-19T18:51:11.812Z,-1.50
2023-01-19T18:53:39.315Z,-1.40
2023-01-19T18:56:07.286Z,-1.40
2023-01-19T18:58:37.575Z,-1.40
2023-01-19T19:01:05.363Z,-1.40
2023-01-19T19:03:32.444Z,-1.50
2023-01-19T19:06:03.590Z,-1.50
2023-01-19T19:08:31.025Z,-1.50
2023-01-19T19:10:58.096Z,-1.50
2023-01-19T19:13:25.530Z,-1.40
2023-01-19T19:15:52.791Z,-1.40
2023-01-19T19:18:20.044Z,-1.40
2023-01-19T19:20:47.121Z,-1.40
2023-01-19T19:23:14.426Z,-1.40
2023-01-19T19:25:41.639Z,-1.40
2023-01-19T19:28:08.755Z,-1.40
2023-01-19T19:30:38.074Z,-1.30
2023-01-19T19:33:05.267Z,-1.40
2023-01-19T19:35:32.527Z,-1.40
2023-01-19T19:37:59.986Z,-1.40
2023-01-19T19:40:28.246Z,-1.30
2023-01-19T19:42:58.313Z,-1.30
2023-01-19T19:45:25.867Z,-1.30
2023-01-19T19:47:52.947Z,-1.30
2023-01-19T19:50:20.177Z,-1.30
2023-01-19T19:52:47.240Z,-1.30
2023-01-19T19:55:14.521Z,-1.30
2023-01-19T19:57:41.576Z,-1.30
2023-01-19T20:00:09.327Z,-1.30
2023-01-19T20:02:36.932Z,-1.30
2023-01-19T20:05:05.271Z,-1.30
2023-01-19T20:07:32.821Z,-1.30
2023-01-19T20:09:59.984Z,-1.30
2023-01-19T20:12:27.539Z,-1.30
2023-01-19T20:14:54.836Z,-1.20
2023-01-19T20:17:23.344Z,-1.20
2023-01-19T20:19:50.468Z,-1.20
2023-01-19T20:22:17.525Z,-1.20
2023-01-19T20:24:44.841Z,-1.20
2023-01-19T20:27:11.927Z,-1.20
2023-01-19T20:29:39.065Z,-1.20
2023-01-19T20:32:06.455Z,-1.30
2023-01-19T20:34:35.723Z,-1.20
2023-01-19T20:37:04.837Z,-1.20
2023-01-19T20:39:34.323Z,-1.30
2023-01-19T20:42:01.840Z,-1.30
2023-01-19T20:44:29.063Z,-1.20
2023-01-19T20:46:56.583Z,-1.20
2023-01-19T20:49:23.778Z,-1.20
2023-01-19T20:51:52.283Z,-1.20
2023-01-19T20:54:22.200Z,-1.20
2023-01-19T20:56:49.488Z,-1.20
2023-01-19T20:59:17.092Z,-1.20
2023-01-19T21:01:44.723Z,-1.20
2023-01-19T21:04:12.708Z,-1.20
2023-01-19T21:06:40.237Z,-1.20
2023-01-19T21:09:08.789Z,-1.20
2023-01-19T21:11:37.653Z,-1.20
2023-01-19T21:14:05.850Z,-1.20
2023-01-19T21:16:35.025Z,-1.20
2023-01-19T21:19:02.164Z,-1.20
2023-01-19T21:21:31.102Z,-1.20
2023-01-19T21:24:00.475Z,-1.20
2023-01-19T21:26:30.020Z,-1.10
2023-01-19T21:28:58.721Z,-1.10
2023-01-19T21:31:27.821Z,-1.10
2023-01-19T21:33:55.802Z,-1.00
2023-01-19T21:36:23.757Z,-1.00
2023-01-19T21:38:51.737Z,-1.10
2023-01-19T21:41:19.275Z,-1.10
2023-01-19T21:43:47.900Z,-1.00
2023-01-19T21:46:20.753Z,-1.00
2023-01-19T21:48:48.135Z,-1.00
2023-01-19T21:51:15.993Z,-1.00
2023-01-19T21:53:43.349Z,-1.00
2023-01-19T21:56:11.431Z,-1.00
2023-01-19T21:58:39.070Z,-1.00
2023-01-19T22:01:11.019Z,-1.10
2023-01-19T22:03:38.456Z,-1.10
2023-01-19T22:06:07.649Z,-1.00
2023-01-19T22:08:35.295Z,-1.10
2023-01-19T22:11:06.727Z,-1.00
2023-01-19T22:13:34.955Z,-1.00
2023-01-19T22:16:03.113Z,-1.00
2023-01-19T22:18:30.401Z,-1.00
2023-01-19T22:21:16.854Z,-1.00
2023-01-19T22:23:44.047Z,-1.00
2023-01-19T22:26:12.133Z,-1.00
2023-01-19T22:28:39.431Z,-1.00
2023-01-19T22:31:09.048Z,-1.00
2023-01-19T22:33:36.733Z,-1.00
2023-01-19T22:36:14.749Z,-1.00
2023-01-19T22:38:42.844Z,-1.00
2023-01-19T22:41:19.640Z,-1.00
2023-01-19T22:43:47.963Z,-0.90
2023-01-19T22:46:21.644Z,-0.90
2023-01-19T22:48:49.837Z,-0.90
2023-01-19T22:51:18.176Z,-0.90
2023-01-19T22:53:45.376Z,-0.90
2023-01-19T22:56:20.665Z,-0.90
2023-01-19T22:58:48.368Z,-0.90
2023-01-19T23:01:27.610Z,-0.90
2023-01-19T23:03:55.223Z,-0.90
2023-01-19T23:06:26.480Z,-0.90
2023-01-19T23:08:55.692Z,-0.90
2023-01-19T23:11:25.593Z,-0.90
2023-01-19T23:13:53.112Z,-0.90
2023-01-19T23:16:20.879Z,-0.90
2023-01-19T23:18:52.188Z,-0.90
2023-01-19T23:21:21.243Z,-0.90
2023-01-19T23:23:48.357Z,-0.90
2023-01-19T23:26:18.899Z,-0.90
2023-01-19T23:28:47.226Z,-0.90
2023-01-19T23:31:22.521Z,-0.90
2023-01-19T23:33:57.255Z,-0.90
2023-01-19T23:36:26.935Z,-0.80
2023-01-19T23:38:59.574Z,-0.90
2023-01-19T23:41:28.975Z,-0.80
2023-01-19T23:43:56.440Z,-0.80
2023-01-19T23:46:23.890Z,-0.80
2023-01-19T23:48:51.178Z,-0.80
2023-01-19T23:51:27.847Z,-0.80
2023-01-19T23:53:56.170Z,-0.80
2023-01-19T23:56:28.035Z,-0.80
2023-01-19T23:58:57.827Z,-0.90
